Time;durP1;ratioP1;P1;durP2;ratioP2;P2;SDS_P1;SDS_P2;PMS_P1;PMS_P2;Temp;Humidity;BMP_temperature;BMP_pressure;BME280_temperature;BME280_humidity;BME280_pressure;Samples;Min_cycle;Max_cycle;Signal;HPM_P1;HPM_P2
2021/12/01 00:00:35;;;;;;;6.00;2.40;;;;;;;;;;4984835;28;20514;-81
2021/12/01 00:03:01;;;;;;;4.13;2.20;;;;;;;;;;4970056;28;20036;-81
2021/12/01 00:05:28;;;;;;;3.63;1.98;;;;;;;;;;4967188;28;20110;-82
2021/12/01 00:07:54;;;;;;;3.22;1.92;;;;;;;;;;4968713;28;20054;-84
2021/12/01 00:10:22;;;;;;;3.70;1.90;;;;;;;;;;4972221;28;20034;-80
2021/12/01 00:12:48;;;;;;;3.78;2.08;;;;;;;;;;4964270;28;20043;-81
2021/12/01 00:15:14;;;;;;;3.75;2.10;;;;;;;;;;4964915;28;20034;-85
2021/12/01 00:17:40;;;;;;;5.55;1.92;;;;;;;;;;4965565;28;20585;-82
2021/12/01 00:20:09;;;;;;;3.40;1.80;;;;;;;;;;4968706;28;20110;-83
2021/12/01 00:22:35;;;;;;;3.15;1.85;;;;;;;;;;4960382;28;20031;-83
2021/12/01 00:25:01;;;;;;;4.22;2.05;;;;;;;;;;4953804;28;20022;-85
2021/12/01 00:27:27;;;;;;;3.40;1.77;;;;;;;;;;4982428;28;20375;-83
2021/12/01 00:29:53;;;;;;;2.90;1.40;;;;;;;;;;4981918;28;20248;-83
2021/12/01 00:32:19;;;;;;;5.00;2.00;;;;;;;;;;4970235;28;20038;-80
2021/12/01 00:34:45;;;;;;;3.60;1.50;;;;;;;;;;4972860;28;20069;-83
2021/12/01 00:37:11;;;;;;;2.28;1.60;;;;;;;;;;4970639;28;20042;-81
2021/12/01 00:39:37;;;;;;;3.53;1.70;;;;;;;;;;4980454;28;20062;-80
2021/12/01 00:42:04;;;;;;;2.72;1.40;;;;;;;;;;4984589;28;20438;-82
2021/12/01 00:44:31;;;;;;;5.18;2.22;;;;;;;;;;4967355;28;20022;-80
2021/12/01 00:47:06;;;;;;;3.60;1.77;;;;;;;;;;4981910;28;20114;-82
2021/12/01 00:49:33;;;;;;;5.30;1.88;;;;;;;;;;4990471;28;20036;-83
2021/12/01 00:52:00;;;;;;;2.65;1.58;;;;;;;;;;4984952;28;20035;-84
2021/12/01 00:54:26;;;;;;;4.55;1.77;;;;;;;;;;4979255;28;20043;-85
2021/12/01 00:56:52;;;;;;;2.40;1.65;;;;;;;;;;4970363;28;20035;-83
2021/12/01 00:59:18;;;;;;;2.58;1.65;;;;;;;;;;4973940;28;20102;-83
2021/12/01 01:01:45;;;;;;;3.70;1.80;;;;;;;;;;4981400;28;20077;-86
2021/12/01 01:04:11;;;;;;;2.80;1.70;;;;;;;;;;4980753;28;20469;-82
2021/12/01 01:06:37;;;;;;;1.80;1.40;;;;;;;;;;4973832;28;20066;-86
2021/12/01 01:09:05;;;;;;;4.57;1.95;;;;;;;;;;4961255;28;20041;-82
2021/12/01 01:17:06;;;;;;;3.08;1.45;;;;;;;;;;4970106;28;20136;-81
2021/12/01 01:19:33;;;;;;;3.13;1.70;;;;;;;;;;4971365;28;20450;-82
2021/12/01 01:22:00;;;;;;;2.50;1.55;;;;;;;;;;4972760;28;20109;-84
2021/12/01 01:24:26;;;;;;;2.60;1.40;;;;;;;;;;4968889;28;20062;-85
2021/12/01 01:26:52;;;;;;;2.28;1.30;;;;;;;;;;4974446;28;20089;-80
2021/12/01 01:29:21;;;;;;;4.22;1.50;;;;;;;;;;4987313;28;20022;-83
2021/12/01 01:31:49;;;;;;;2.13;1.20;;;;;;;;;;4991442;28;20042;-81
2021/12/01 01:34:15;;;;;;;1.90;1.33;;;;;;;;;;4961765;28;20121;-80
2021/12/01 01:36:41;;;;;;;4.07;1.40;;;;;;;;;;4972914;28;20133;-83
2021/12/01 01:39:07;;;;;;;2.17;1.55;;;;;;;;;;4972734;28;20404;-86
2021/12/01 01:41:33;;;;;;;3.83;1.50;;;;;;;;;;4977879;28;20042;-84
2021/12/01 01:43:59;;;;;;;2.22;1.33;;;;;;;;;;4963906;28;20480;-84
2021/12/01 01:46:30;;;;;;;3.17;1.50;;;;;;;;;;4971678;28;20031;-84
2021/12/01 01:49:05;;;;;;;2.38;1.52;;;;;;;;;;4962171;28;20026;-84
2021/12/01 01:51:31;;;;;;;2.15;1.25;;;;;;;;;;4984646;28;20038;-83
2021/12/01 01:53:58;;;;;;;3.17;1.33;;;;;;;;;;4970704;28;20491;-82
2021/12/01 01:56:24;;;;;;;3.22;1.42;;;;;;;;;;4951911;28;20137;-81
2021/12/01 01:58:51;;;;;;;2.50;1.17;;;;;;;;;;4973022;28;20039;-84
2021/12/01 02:04:02;;;;;;;6.50;1.60;;;;;;;;;;4951193;29;20178;-83
2021/12/01 02:06:28;;;;;;;3.00;1.20;;;;;;;;;;4965211;28;20154;-81
2021/12/01 02:08:57;;;;;;;4.40;1.35;;;;;;;;;;4972337;28;20070;-82
2021/12/01 02:19:10;;;;;;;4.45;1.60;;;;;;;;;;5421026;23;20066;-83
2021/12/01 02:21:36;;;;;;;1.88;1.38;;;;;;;;;;4982680;28;20577;-83
2021/12/01 02:24:05;;;;;;;5.75;1.73;;;;;;;;;;4976270;28;20065;-83
2021/12/01 02:26:32;;;;;;;4.28;1.50;;;;;;;;;;4982258;28;20124;-81
2021/12/01 02:28:59;;;;;;;3.17;1.40;;;;;;;;;;4998529;28;20043;-82
2021/12/01 02:31:28;;;;;;;4.13;1.70;;;;;;;;;;4993071;28;20042;-81
2021/12/01 02:33:55;;;;;;;3.97;1.20;;;;;;;;;;4969573;28;20761;-82
2021/12/01 02:36:21;;;;;;;4.30;1.25;;;;;;;;;;4980300;28;20031;-85
2021/12/01 02:38:48;;;;;;;2.72;1.38;;;;;;;;;;4996240;28;20429;-84
2021/12/01 02:41:15;;;;;;;3.55;1.30;;;;;;;;;;4982442;28;20497;-84
2021/12/01 02:43:41;;;;;;;3.15;1.33;;;;;;;;;;4986377;28;20034;-86
2021/12/01 02:46:08;;;;;;;5.40;1.33;;;;;;;;;;4982435;28;20831;-81
2021/12/01 02:48:41;;;;;;;4.25;1.33;;;;;;;;;;4973508;28;20190;-82
2021/12/01 02:51:08;;;;;;;2.50;1.40;;;;;;;;;;4978612;28;20105;-81
2021/12/01 02:53:34;;;;;;;4.38;1.50;;;;;;;;;;4990048;28;20022;-83
2021/12/01 02:56:02;;;;;;;4.10;1.58;;;;;;;;;;4998912;28;20694;-83
2021/12/01 02:58:31;;;;;;;2.38;1.33;;;;;;;;;;4986043;28;20113;-83
2021/12/01 03:00:58;;;;;;;3.53;1.50;;;;;;;;;;4993339;28;20770;-85
2021/12/01 03:03:24;;;;;;;4.22;1.45;;;;;;;;;;4985148;28;20030;-84
2021/12/01 03:05:51;;;;;;;2.47;1.42;;;;;;;;;;4998050;28;20031;-82
2021/12/01 03:08:17;;;;;;;4.65;1.42;;;;;;;;;;4998841;28;20042;-81
2021/12/01 03:10:45;;;;;;;2.47;1.67;;;;;;;;;;4990775;28;20106;-82
2021/12/01 03:13:11;;;;;;;3.15;1.50;;;;;;;;;;4985204;28;20465;-81
2021/12/01 03:15:37;;;;;;;3.50;1.80;;;;;;;;;;4979479;28;20450;-80
2021/12/01 03:18:03;;;;;;;4.65;1.35;;;;;;;;;;4996287;28;20129;-84
2021/12/01 03:20:29;;;;;;;3.00;1.38;;;;;;;;;;4995151;28;20068;-82
2021/12/01 03:22:55;;;;;;;3.45;1.40;;;;;;;;;;4965200;28;20023;-82
2021/12/01 03:25:22;;;;;;;6.43;1.80;;;;;;;;;;4999504;28;20038;-82
2021/12/01 03:27:48;;;;;;;3.38;1.35;;;;;;;;;;4999260;28;20561;-85
2021/12/01 03:30:14;;;;;;;3.42;1.88;;;;;;;;;;4984098;28;20034;-84
2021/12/01 03:32:41;;;;;;;2.75;1.70;;;;;;;;;;4984303;28;20141;-82
2021/12/01 03:35:08;;;;;;;3.25;1.50;;;;;;;;;;4978080;28;20031;-84
2021/12/01 03:37:34;;;;;;;3.30;1.30;;;;;;;;;;4984704;28;20049;-84
2021/12/01 03:40:00;;;;;;;3.67;1.88;;;;;;;;;;4983395;28;20117;-82
2021/12/01 03:42:27;;;;;;;4.88;1.92;;;;;;;;;;4984580;28;20029;-81
2021/12/01 03:44:55;;;;;;;6.05;1.60;;;;;;;;;;4998240;28;20359;-81
2021/12/01 03:47:21;;;;;;;4.93;1.73;;;;;;;;;;4983709;28;20390;-81
2021/12/01 03:49:47;;;;;;;4.30;1.70;;;;;;;;;;4983045;28;20026;-83
2021/12/01 03:52:16;;;;;;;2.70;1.55;;;;;;;;;;4982947;28;20030;-81
2021/12/01 03:54:43;;;;;;;3.72;1.55;;;;;;;;;;4975033;28;20479;-81
2021/12/01 03:57:09;;;;;;;3.72;1.75;;;;;;;;;;4977254;28;20138;-83
2021/12/01 03:59:35;;;;;;;2.80;1.70;;;;;;;;;;4983424;28;20041;-81
2021/12/01 04:02:01;;;;;;;3.40;1.58;;;;;;;;;;4996986;28;20030;-84
2021/12/01 04:04:27;;;;;;;4.18;2.00;;;;;;;;;;4997744;28;20038;-83
2021/12/01 04:06:53;;;;;;;4.95;2.35;;;;;;;;;;4984357;28;20477;-83
2021/12/01 04:09:19;;;;;;;3.10;1.80;;;;;;;;;;5015764;28;20897;-83
2021/12/01 04:11:45;;;;;;;4.20;1.58;;;;;;;;;;4976310;28;20040;-83
2021/12/01 04:14:11;;;;;;;4.22;1.80;;;;;;;;;;4987678;28;20029;-83
2021/12/01 04:16:37;;;;;;;4.47;1.63;;;;;;;;;;4988443;28;20037;-82
2021/12/01 04:19:03;;;;;;;3.45;1.75;;;;;;;;;;4987162;28;20092;-83
2021/12/01 04:21:29;;;;;;;3.47;1.70;;;;;;;;;;4997945;28;20046;-85
2021/12/01 04:23:55;;;;;;;2.70;1.63;;;;;;;;;;4982204;28;20041;-83
2021/12/01 04:26:24;;;;;;;4.88;1.98;;;;;;;;;;4969095;28;20073;-84
2021/12/01 04:28:52;;;;;;;3.53;2.00;;;;;;;;;;4987715;28;20795;-83
2021/12/01 04:31:18;;;;;;;5.70;2.00;;;;;;;;;;4987579;28;20114;-85
2021/12/01 04:33:44;;;;;;;5.45;2.00;;;;;;;;;;4992520;28;20469;-85
2021/12/01 04:36:11;;;;;;;5.38;2.13;;;;;;;;;;5002178;28;20042;-84
2021/12/01 04:38:37;;;;;;;9.45;2.92;;;;;;;;;;4986976;28;20035;-84
2021/12/01 04:41:07;;;;;;;5.88;2.00;;;;;;;;;;4986045;28;20050;-83
2021/12/01 04:43:33;;;;;;;6.85;1.88;;;;;;;;;;5001892;28;20036;-85
2021/12/01 04:46:00;;;;;;;4.53;2.25;;;;;;;;;;4992234;28;20123;-85
2021/12/01 04:48:27;;;;;;;4.45;2.08;;;;;;;;;;4998932;28;20490;-81
2021/12/01 04:50:53;;;;;;;5.32;2.42;;;;;;;;;;4999529;28;20127;-83
2021/12/01 04:53:19;;;;;;;4.68;2.33;;;;;;;;;;5006171;28;20030;-84
2021/12/01 04:55:45;;;;;;;5.57;2.75;;;;;;;;;;4999341;28;20034;-83
2021/12/01 04:58:11;;;;;;;8.05;2.42;;;;;;;;;;4988701;28;20113;-82
2021/12/01 05:00:38;;;;;;;4.93;2.25;;;;;;;;;;4999235;28;20129;-82
2021/12/01 05:03:06;;;;;;;5.22;2.10;;;;;;;;;;4993583;28;20046;-83
2021/12/01 05:05:32;;;;;;;5.88;2.38;;;;;;;;;;5001836;28;20645;-83
2021/12/01 05:07:58;;;;;;;7.22;2.75;;;;;;;;;;4983980;28;20026;-85
2021/12/01 05:10:24;;;;;;;8.40;3.30;;;;;;;;;;4987337;28;20433;-82
2021/12/01 05:12:51;;;;;;;11.52;3.33;;;;;;;;;;4984357;28;20057;-84
2021/12/01 05:15:17;;;;;;;10.95;3.38;;;;;;;;;;5005443;28;20509;-81
2021/12/01 05:17:43;;;;;;;9.65;3.58;;;;;;;;;;4985922;28;20042;-82
2021/12/01 05:20:11;;;;;;;7.93;3.83;;;;;;;;;;4981861;28;20050;-84
2021/12/01 05:22:38;;;;;;;13.38;4.68;;;;;;;;;;5001543;28;20064;-83
2021/12/01 05:25:05;;;;;;;10.02;4.00;;;;;;;;;;4987513;28;20038;-84
2021/12/01 05:27:31;;;;;;;9.77;4.00;;;;;;;;;;4997311;28;20451;-85
2021/12/01 05:29:57;;;;;;;8.27;3.92;;;;;;;;;;4978817;28;20019;-82
2021/12/01 05:32:24;;;;;;;7.95;3.70;;;;;;;;;;4982927;28;20382;-83
2021/12/01 05:34:50;;;;;;;9.70;4.47;;;;;;;;;;4984712;28;20038;-82
2021/12/01 05:37:16;;;;;;;12.20;4.07;;;;;;;;;;4986231;28;20157;-84
2021/12/01 05:39:45;;;;;;;10.57;4.60;;;;;;;;;;4987550;28;20034;-83
2021/12/01 05:42:12;;;;;;;8.00;3.97;;;;;;;;;;4998616;28;20089;-84
2021/12/01 05:44:38;;;;;;;11.10;3.92;;;;;;;;;;5003982;28;20026;-82
2021/12/01 05:47:04;;;;;;;10.20;4.20;;;;;;;;;;5003811;28;20781;-81
2021/12/01 05:49:30;;;;;;;9.35;4.25;;;;;;;;;;5003202;28;20154;-83
2021/12/01 05:51:57;;;;;;;14.98;4.50;;;;;;;;;;5002367;28;20041;-81
2021/12/01 05:54:23;;;;;;;9.80;4.20;;;;;;;;;;5000708;28;20081;-81
2021/12/01 05:56:49;;;;;;;12.95;4.82;;;;;;;;;;5000593;28;20042;-82
2021/12/01 05:59:15;;;;;;;11.73;4.10;;;;;;;;;;4984815;28;20038;-84
2021/12/01 06:01:41;;;;;;;11.40;4.47;;;;;;;;;;4973402;28;20108;-83
2021/12/01 06:04:07;;;;;;;24.02;5.22;;;;;;;;;;4998069;28;20504;-83
2021/12/01 06:06:33;;;;;;;26.48;6.22;;;;;;;;;;4999861;28;20120;-88
2021/12/01 06:08:59;;;;;;;28.02;6.38;;;;;;;;;;5004114;28;20057;-83
2021/12/01 06:11:25;;;;;;;34.05;7.55;;;;;;;;;;5000425;28;20584;-86
2021/12/01 06:13:53;;;;;;;41.70;8.10;;;;;;;;;;4997748;28;20041;-85
2021/12/01 06:16:22;;;;;;;32.13;8.18;;;;;;;;;;4992716;28;20486;-87
2021/12/01 06:18:48;;;;;;;25.70;6.25;;;;;;;;;;4995516;28;20153;-84
2021/12/01 06:21:14;;;;;;;16.08;5.93;;;;;;;;;;4986274;28;20046;-86
2021/12/01 06:23:40;;;;;;;30.10;6.40;;;;;;;;;;4998617;28;20133;-88
2021/12/01 06:26:07;;;;;;;32.05;7.05;;;;;;;;;;4982868;28;20113;-87
2021/12/01 06:28:33;;;;;;;35.65;7.65;;;;;;;;;;4984606;28;20034;-83
2021/12/01 06:30:59;;;;;;;25.60;6.63;;;;;;;;;;4985021;28;20070;-87
2021/12/01 06:33:29;;;;;;;32.20;7.60;;;;;;;;;;4981605;28;20495;-84
2021/12/01 06:35:56;;;;;;;20.80;7.00;;;;;;;;;;4991438;28;20121;-83
2021/12/01 06:38:22;;;;;;;30.83;7.05;;;;;;;;;;4993483;28;20498;-83
2021/12/01 06:40:49;;;;;;;36.08;6.13;;;;;;;;;;4981756;28;20049;-83
2021/12/01 06:43:15;;;;;;;23.48;6.13;;;;;;;;;;4983537;28;20197;-83
2021/12/01 06:45:41;;;;;;;27.38;6.75;;;;;;;;;;4998624;28;20485;-83
2021/12/01 06:48:07;;;;;;;23.13;6.05;;;;;;;;;;4999445;28;20046;-82
2021/12/01 06:50:33;;;;;;;16.92;6.25;;;;;;;;;;4980210;28;20041;-88
2021/12/01 06:53:00;;;;;;;26.58;6.47;;;;;;;;;;4972110;28;20034;-84
2021/12/01 06:55:26;;;;;;;25.55;6.55;;;;;;;;;;4999600;28;20053;-85
2021/12/01 06:57:52;;;;;;;28.83;7.40;;;;;;;;;;4984181;28;20113;-85
2021/12/01 07:00:20;;;;;;;26.42;6.50;;;;;;;;;;4981370;28;20054;-82
2021/12/01 07:05:59;;;;;;;28.47;6.70;;;;;;;;;;4968979;28;20050;-85
2021/12/01 07:08:25;;;;;;;30.88;7.60;;;;;;;;;;4978764;28;20363;-83
2021/12/01 07:10:52;;;;;;;25.13;7.05;;;;;;;;;;4978016;28;20034;-80
2021/12/01 07:13:18;;;;;;;21.60;7.10;;;;;;;;;;4984257;28;20124;-83
2021/12/01 07:15:44;;;;;;;22.40;6.82;;;;;;;;;;4995473;28;20026;-79
2021/12/01 07:18:10;;;;;;;18.63;6.03;;;;;;;;;;4981191;28;20038;-81
2021/12/01 07:20:37;;;;;;;19.65;5.55;;;;;;;;;;4975778;28;20506;-81
2021/12/01 07:23:04;;;;;;;22.08;5.72;;;;;;;;;;4978601;28;20034;-85
2021/12/01 07:25:31;;;;;;;14.65;6.18;;;;;;;;;;4981877;28;20119;-83
2021/12/01 07:27:57;;;;;;;40.88;6.97;;;;;;;;;;4986490;28;20371;-84
2021/12/01 07:30:23;;;;;;;19.55;5.80;;;;;;;;;;4987378;28;20038;-83
2021/12/01 07:32:50;;;;;;;18.92;5.68;;;;;;;;;;5001921;28;20068;-83
2021/12/01 07:35:16;;;;;;;21.02;5.47;;;;;;;;;;5000923;28;20805;-83
2021/12/01 07:37:42;;;;;;;19.40;6.10;;;;;;;;;;4978246;28;20034;-80
2021/12/01 07:40:08;;;;;;;19.50;5.65;;;;;;;;;;4994434;28;20034;-85
2021/12/01 07:42:35;;;;;;;16.65;6.00;;;;;;;;;;5002185;28;20026;-80
2021/12/01 07:45:01;;;;;;;12.27;5.13;;;;;;;;;;4979173;28;20030;-86
2021/12/01 07:47:27;;;;;;;32.13;6.65;;;;;;;;;;4982513;28;20031;-86
2021/12/01 07:49:53;;;;;;;23.13;6.47;;;;;;;;;;4986467;28;20034;-82
2021/12/01 07:52:19;;;;;;;23.60;6.45;;;;;;;;;;4981945;28;20034;-83
2021/12/01 07:54:46;;;;;;;16.27;5.80;;;;;;;;;;5001253;28;20072;-84
2021/12/01 07:57:12;;;;;;;18.75;6.72;;;;;;;;;;4977493;28;20459;-83
2021/12/01 07:59:38;;;;;;;22.92;6.03;;;;;;;;;;4983700;28;20145;-84
2021/12/01 08:02:04;;;;;;;22.30;6.28;;;;;;;;;;4996996;28;20038;-82
2021/12/01 08:04:30;;;;;;;12.13;5.35;;;;;;;;;;4990329;28;20042;-84
2021/12/01 08:06:56;;;;;;;18.23;5.80;;;;;;;;;;4989006;28;20062;-87
2021/12/01 08:09:23;;;;;;;21.50;5.60;;;;;;;;;;5006880;28;20117;-84
2021/12/01 08:11:49;;;;;;;19.83;5.47;;;;;;;;;;4989558;28;20084;-82
2021/12/01 08:14:15;;;;;;;21.30;6.07;;;;;;;;;;4987618;28;20122;-82
2021/12/01 08:16:41;;;;;;;18.23;6.25;;;;;;;;;;4986501;28;20062;-83
2021/12/01 08:19:08;;;;;;;11.82;5.38;;;;;;;;;;4993358;28;20104;-87
2021/12/01 08:21:34;;;;;;;13.68;5.63;;;;;;;;;;5003247;28;20454;-84
2021/12/01 08:24:00;;;;;;;15.65;5.85;;;;;;;;;;4987122;28;20038;-81
2021/12/01 08:26:26;;;;;;;21.52;6.57;;;;;;;;;;4998579;28;20073;-82
2021/12/01 08:28:52;;;;;;;15.13;6.22;;;;;;;;;;4984601;28;20394;-83
2021/12/01 08:31:19;;;;;;;17.70;6.43;;;;;;;;;;4984016;28;20043;-80
2021/12/01 08:33:46;;;;;;;19.00;6.68;;;;;;;;;;4985321;28;20068;-83
2021/12/01 08:36:12;;;;;;;21.58;6.68;;;;;;;;;;5001662;28;20140;-82
2021/12/01 08:38:39;;;;;;;15.68;5.55;;;;;;;;;;4985153;28;20485;-80
2021/12/01 08:41:06;;;;;;;18.50;7.00;;;;;;;;;;4985786;28;20046;-82
2021/12/01 08:43:33;;;;;;;15.32;6.25;;;;;;;;;;5001518;28;20026;-86
2021/12/01 08:46:04;;;;;;;16.40;6.85;;;;;;;;;;4981378;28;20234;-86
2021/12/01 08:48:32;;;;;;;13.27;6.45;;;;;;;;;;4996344;28;20088;-85
2021/12/01 08:51:10;;;;;;;15.27;7.00;;;;;;;;;;4984917;28;20390;-86
2021/12/01 08:53:41;;;;;;;20.50;7.80;;;;;;;;;;4973259;28;20137;-84
2021/12/01 08:56:07;;;;;;;16.40;7.30;;;;;;;;;;4980576;28;20124;-84
2021/12/01 08:58:33;;;;;;;16.25;6.90;;;;;;;;;;4989481;28;20022;-85
2021/12/01 09:01:00;;;;;;;15.75;8.00;;;;;;;;;;4986987;28;20042;-83
2021/12/01 09:03:26;;;;;;;16.02;7.53;;;;;;;;;;5000369;28;20120;-84
2021/12/01 09:05:52;;;;;;;19.58;8.13;;;;;;;;;;4987504;28;20158;-84
2021/12/01 09:08:20;;;;;;;14.10;8.18;;;;;;;;;;4979108;28;20030;-84
2021/12/01 09:10:47;;;;;;;15.40;7.47;;;;;;;;;;4977590;28;20046;-85
2021/12/01 09:13:13;;;;;;;14.25;7.78;;;;;;;;;;4987792;28;20046;-85
2021/12/01 09:15:39;;;;;;;15.05;7.15;;;;;;;;;;4987854;28;20034;-85
2021/12/01 09:18:06;;;;;;;17.50;8.55;;;;;;;;;;4982923;28;20230;-84
2021/12/01 09:20:32;;;;;;;22.10;7.75;;;;;;;;;;4990003;28;20042;-84
2021/12/01 09:23:03;;;;;;;21.08;7.85;;;;;;;;;;4988828;28;20522;-84
2021/12/01 09:25:29;;;;;;;16.70;7.00;;;;;;;;;;4987554;28;20030;-84
2021/12/01 09:27:55;;;;;;;16.63;8.75;;;;;;;;;;5001422;28;20035;-85
2021/12/01 09:30:21;;;;;;;13.15;8.00;;;;;;;;;;4987654;28;20045;-85
2021/12/01 09:32:50;;;;;;;13.27;8.52;;;;;;;;;;4988967;28;20033;-85
2021/12/01 09:35:16;;;;;;;17.83;8.25;;;;;;;;;;4987257;28;20500;-85
2021/12/01 09:37:42;;;;;;;16.27;9.40;;;;;;;;;;4987100;28;20070;-84
2021/12/01 09:40:13;;;;;;;17.13;8.98;;;;;;;;;;4986519;28;20034;-84
2021/12/01 09:42:55;;;;;;;15.93;8.70;;;;;;;;;;4985445;28;20030;-84
2021/12/01 09:45:22;;;;;;;24.03;9.33;;;;;;;;;;4978444;28;20034;-87
2021/12/01 09:47:49;;;;;;;20.50;8.57;;;;;;;;;;4984734;28;20553;-83
2021/12/01 09:50:15;;;;;;;21.08;8.45;;;;;;;;;;4987133;28;20174;-85
2021/12/01 09:52:41;;;;;;;12.23;7.85;;;;;;;;;;4984606;28;20030;-84
2021/12/01 09:55:08;;;;;;;14.55;7.95;;;;;;;;;;5000012;28;20033;-84
2021/12/01 09:57:34;;;;;;;17.90;7.93;;;;;;;;;;4986297;28;20068;-84
2021/12/01 10:00:01;;;;;;;16.05;7.25;;;;;;;;;;4988121;28;20037;-83
2021/12/01 10:02:27;;;;;;;18.50;8.02;;;;;;;;;;4988590;28;20104;-84
2021/12/01 10:04:53;;;;;;;15.95;7.72;;;;;;;;;;4980020;28;20482;-84
2021/12/01 10:07:23;;;;;;;14.85;6.72;;;;;;;;;;4984608;28;20398;-85
2021/12/01 10:09:52;;;;;;;18.52;7.85;;;;;;;;;;4987149;28;20022;-82
2021/12/01 10:12:18;;;;;;;16.63;7.00;;;;;;;;;;4983905;28;20045;-85
2021/12/01 10:14:48;;;;;;;16.10;7.35;;;;;;;;;;4984717;28;20034;-81
2021/12/01 10:17:15;;;;;;;16.13;7.88;;;;;;;;;;5000253;28;20038;-83
2021/12/01 10:19:41;;;;;;;12.90;7.38;;;;;;;;;;5000263;28;20050;-84
2021/12/01 10:22:11;;;;;;;13.82;7.45;;;;;;;;;;4988180;28;20096;-85
2021/12/01 10:24:39;;;;;;;98.05;12.82;;;;;;;;;;5002194;28;20371;-81
2021/12/01 10:27:09;;;;;;;27.33;7.82;;;;;;;;;;4979670;28;21726;-84
2021/12/01 10:29:43;;;;;;;23.67;8.45;;;;;;;;;;5004716;28;20113;-84
2021/12/01 10:32:09;;;;;;;12.02;6.60;;;;;;;;;;4989631;28;20030;-81
2021/12/01 10:34:37;;;;;;;17.23;7.03;;;;;;;;;;4989544;28;20145;-88
2021/12/01 10:37:12;;;;;;;13.07;7.25;;;;;;;;;;4984760;28;20044;-90
2021/12/01 10:39:39;;;;;;;12.52;7.28;;;;;;;;;;4987592;28;20447;-86
2021/12/01 10:42:07;;;;;;;13.38;7.50;;;;;;;;;;4990332;28;20077;-90
2021/12/01 10:44:36;;;;;;;15.40;7.20;;;;;;;;;;4979720;28;20069;-83
2021/12/01 10:47:12;;;;;;;43.92;9.73;;;;;;;;;;5005515;28;20034;-86
2021/12/01 10:49:40;;;;;;;28.40;8.63;;;;;;;;;;4979268;28;20077;-88
2021/12/01 10:52:12;;;;;;;19.48;7.85;;;;;;;;;;4998052;28;20070;-82
2021/12/01 10:54:58;;;;;;;21.67;9.43;;;;;;;;;;4986380;28;20042;-85
2021/12/01 10:57:50;;;;;;;15.60;7.38;;;;;;;;;;4979803;28;20146;-85
2021/12/01 11:00:16;;;;;;;14.68;7.15;;;;;;;;;;4988354;28;20047;-82
2021/12/01 11:02:43;;;;;;;19.95;7.97;;;;;;;;;;4987708;28;20038;-83
2021/12/01 11:05:09;;;;;;;10.43;7.85;;;;;;;;;;4983728;28;20132;-83
2021/12/01 11:07:35;;;;;;;10.70;6.93;;;;;;;;;;4983406;28;20026;-82
2021/12/01 11:10:10;;;;;;;10.52;7.70;;;;;;;;;;4987114;28;20030;-82
2021/12/01 11:12:36;;;;;;;13.50;8.27;;;;;;;;;;4987007;28;20042;-83
2021/12/01 11:15:23;;;;;;;12.98;7.50;;;;;;;;;;4982443;28;20030;-84
2021/12/01 11:17:50;;;;;;;13.40;7.78;;;;;;;;;;4977388;28;20575;-83
2021/12/01 11:20:31;;;;;;;11.90;7.70;;;;;;;;;;4996011;28;20062;-83
2021/12/01 11:23:15;;;;;;;10.18;7.20;;;;;;;;;;4986657;28;20045;-84
2021/12/01 11:25:41;;;;;;;8.48;7.05;;;;;;;;;;4997214;28;20416;-82
2021/12/01 11:28:08;;;;;;;10.63;7.35;;;;;;;;;;5001784;28;20446;-84
2021/12/01 11:30:37;;;;;;;10.35;7.75;;;;;;;;;;4978176;28;20614;-84
2021/12/01 11:33:04;;;;;;;8.50;7.10;;;;;;;;;;4986386;28;20117;-81
2021/12/01 11:35:30;;;;;;;16.20;7.60;;;;;;;;;;4986152;28;20038;-84
2021/12/01 11:37:57;;;;;;;11.30;7.07;;;;;;;;;;5001383;28;20748;-82
2021/12/01 11:40:27;;;;;;;14.45;7.72;;;;;;;;;;4986193;28;20037;-82
2021/12/01 11:42:53;;;;;;;12.25;7.13;;;;;;;;;;5002105;28;20034;-81
2021/12/01 11:45:19;;;;;;;14.10;7.32;;;;;;;;;;4984063;28;20038;-83
2021/12/01 11:47:49;;;;;;;10.73;7.32;;;;;;;;;;4990709;28;20038;-84
2021/12/01 11:50:26;;;;;;;10.05;7.93;;;;;;;;;;4983193;28;20034;-81
2021/12/01 11:53:07;;;;;;;12.88;8.00;;;;;;;;;;4981415;28;20026;-82
2021/12/01 11:55:56;;;;;;;11.85;8.00;;;;;;;;;;4984160;28;20030;-83
2021/12/01 11:58:48;;;;;;;10.80;7.78;;;;;;;;;;4983770;28;20038;-84
2021/12/01 12:01:20;;;;;;;10.60;7.53;;;;;;;;;;4960328;28;20069;-86
2021/12/01 12:03:47;;;;;;;10.70;8.13;;;;;;;;;;4978940;28;20034;-82
2021/12/01 12:06:26;;;;;;;10.20;8.57;;;;;;;;;;4984658;28;20478;-82
2021/12/01 12:08:59;;;;;;;14.38;8.65;;;;;;;;;;5000637;28;20516;-85
2021/12/01 12:11:43;;;;;;;15.85;8.40;;;;;;;;;;4981219;28;20026;-84
2021/12/01 12:14:15;;;;;;;30.85;9.23;;;;;;;;;;4981732;28;20355;-83
2021/12/01 12:17:01;;;;;;;150.32;16.77;;;;;;;;;;4985727;28;20450;-82
2021/12/01 12:19:46;;;;;;;22.40;9.77;;;;;;;;;;4995467;28;20050;-82
2021/12/01 12:22:13;;;;;;;18.98;8.70;;;;;;;;;;5000642;28;20038;-82
2021/12/01 12:24:44;;;;;;;16.15;8.68;;;;;;;;;;4995339;28;20041;-82
2021/12/01 12:27:30;;;;;;;58.88;10.70;;;;;;;;;;4986442;28;20084;-82
2021/12/01 12:29:59;;;;;;;480.05;35.92;;;;;;;;;;4985662;28;20541;-83
2021/12/01 12:32:29;;;;;;;207.60;17.27;;;;;;;;;;5001240;28;20080;-83
2021/12/01 12:35:16;;;;;;;32.92;9.70;;;;;;;;;;4978861;28;20667;-84
2021/12/01 12:37:51;;;;;;;16.88;9.50;;;;;;;;;;4997749;28;20033;-82
2021/12/01 12:47:00;;;;;;;15.82;8.95;;;;;;;;;;4961825;28;20501;-83
2021/12/01 12:49:43;;;;;;;25.88;10.35;;;;;;;;;;4996689;28;20034;-83
2021/12/01 12:52:27;;;;;;;31.00;10.18;;;;;;;;;;4982755;28;20034;-82
2021/12/01 12:54:54;;;;;;;16.77;10.05;;;;;;;;;;5004807;28;20061;-82
2021/12/01 12:57:21;;;;;;;13.00;8.85;;;;;;;;;;4977935;28;20038;-83
2021/12/01 12:59:47;;;;;;;70.18;10.95;;;;;;;;;;4988062;28;20032;-82
2021/12/01 13:02:16;;;;;;;147.98;16.38;;;;;;;;;;4989118;28;20190;-83
2021/12/01 13:04:49;;;;;;;118.15;14.13;;;;;;;;;;5002795;28;20500;-84
2021/12/01 13:07:29;;;;;;;99.22;14.23;;;;;;;;;;4987404;28;20045;-84
2021/12/01 13:10:14;;;;;;;301.42;27.88;;;;;;;;;;4995957;28;20034;-84
2021/12/01 13:12:49;;;;;;;102.53;15.80;;;;;;;;;;4987031;28;20030;-84
2021/12/01 13:15:26;;;;;;;92.93;12.93;;;;;;;;;;5004812;28;20554;-84
2021/12/01 13:17:53;;;;;;;28.05;10.93;;;;;;;;;;5003641;28;20695;-84
2021/12/01 13:20:30;;;;;;;17.60;9.18;;;;;;;;;;4989156;28;20402;-84
2021/12/01 13:23:16;;;;;;;14.18;9.15;;;;;;;;;;5004420;28;20165;-84
2021/12/01 13:25:52;;;;;;;13.75;9.73;;;;;;;;;;4984601;28;21591;-84
2021/12/01 13:28:27;;;;;;;18.15;9.25;;;;;;;;;;4989437;28;20026;-85
2021/12/01 13:30:59;;;;;;;15.27;9.63;;;;;;;;;;4984812;28;20073;-85
2021/12/01 13:33:26;;;;;;;37.95;9.82;;;;;;;;;;4985898;28;20041;-84
2021/12/01 13:35:55;;;;;;;17.40;9.77;;;;;;;;;;5004753;28;20058;-84
2021/12/01 13:38:30;;;;;;;19.35;9.90;;;;;;;;;;5003960;28;20042;-84
2021/12/01 13:40:56;;;;;;;21.88;10.65;;;;;;;;;;5003625;28;20043;-83
2021/12/01 13:43:22;;;;;;;15.55;9.77;;;;;;;;;;4989356;28;20421;-84
2021/12/01 13:45:55;;;;;;;17.35;9.88;;;;;;;;;;4989098;28;20033;-84
2021/12/01 13:48:21;;;;;;;18.88;9.70;;;;;;;;;;4988771;28;20125;-84
2021/12/01 13:50:47;;;;;;;13.95;9.55;;;;;;;;;;4987471;28;20030;-84
2021/12/01 13:53:14;;;;;;;20.75;9.77;;;;;;;;;;5003288;28;20121;-84
2021/12/01 13:55:41;;;;;;;22.05;11.05;;;;;;;;;;4989540;28;20039;-83
2021/12/01 13:58:09;;;;;;;18.63;9.95;;;;;;;;;;4990110;28;20064;-84
2021/12/01 14:00:40;;;;;;;21.13;9.85;;;;;;;;;;4988589;28;20034;-84
2021/12/01 14:03:09;;;;;;;21.83;10.48;;;;;;;;;;5004507;28;20117;-84
2021/12/01 14:05:35;;;;;;;18.35;9.70;;;;;;;;;;4988418;28;20073;-83
2021/12/01 14:08:30;;;;;;;21.13;10.35;;;;;;;;;;5001379;28;20050;-83
2021/12/01 14:11:08;;;;;;;14.75;9.88;;;;;;;;;;4997288;28;20030;-83
2021/12/01 14:13:38;;;;;;;14.93;9.70;;;;;;;;;;4981373;28;20033;-83
2021/12/01 14:16:04;;;;;;;16.38;9.95;;;;;;;;;;4975357;28;20045;-83
2021/12/01 14:18:30;;;;;;;21.58;10.23;;;;;;;;;;5002580;28;20058;-83
2021/12/01 14:21:16;;;;;;;21.08;9.38;;;;;;;;;;5003524;28;20050;-83
2021/12/01 14:23:46;;;;;;;13.32;8.25;;;;;;;;;;5003691;28;20186;-83
2021/12/01 14:26:12;;;;;;;17.25;10.00;;;;;;;;;;5004383;28;20501;-83
2021/12/01 14:28:39;;;;;;;13.73;8.13;;;;;;;;;;4988707;28;20066;-83
2021/12/01 14:31:06;;;;;;;16.65;8.80;;;;;;;;;;4987828;28;20038;-83
2021/12/01 14:33:32;;;;;;;15.45;9.10;;;;;;;;;;4987992;28;20093;-83
2021/12/01 14:36:05;;;;;;;17.55;10.32;;;;;;;;;;4988137;28;20113;-83
2021/12/01 14:38:50;;;;;;;20.58;8.90;;;;;;;;;;4988693;28;20086;-84
2021/12/01 14:41:18;;;;;;;16.75;8.63;;;;;;;;;;5002363;28;20612;-83
2021/12/01 14:43:44;;;;;;;17.40;9.90;;;;;;;;;;5002659;28;20645;-83
2021/12/01 14:46:18;;;;;;;16.95;9.63;;;;;;;;;;5003521;28;20543;-83
2021/12/01 14:48:44;;;;;;;14.05;9.43;;;;;;;;;;4988187;28;20027;-84
2021/12/01 14:51:12;;;;;;;26.73;10.32;;;;;;;;;;5003757;28;20504;-83
2021/12/01 14:53:40;;;;;;;18.02;9.57;;;;;;;;;;4987949;28;20068;-83
2021/12/01 14:56:07;;;;;;;16.95;9.63;;;;;;;;;;4988003;28;20026;-83
2021/12/01 14:58:33;;;;;;;14.82;9.25;;;;;;;;;;5003454;28;20488;-83
2021/12/01 15:01:01;;;;;;;15.10;10.10;;;;;;;;;;4987696;28;20026;-83
2021/12/01 15:03:38;;;;;;;15.48;9.95;;;;;;;;;;4988148;28;20038;-83
2021/12/01 15:06:05;;;;;;;14.38;10.23;;;;;;;;;;4987469;28;20350;-83